sensor_id;sensor_type;location;lat;lon;timestamp;temperature;humidity
68450;SHT30;67758;39.572;2.652;2023-05-03T00:00:23;17.01;66.28
68450;SHT30;67758;39.572;2.652;2023-05-03T00:02:51;17.05;65.38
68450;SHT30;67758;39.572;2.652;2023-05-03T00:05:19;17.02;64.49
68450;SHT30;67758;39.572;2.652;2023-05-03T00:07:45;17.03;63.71
68450;SHT30;67758;39.572;2.652;2023-05-03T00:10:13;16.98;63.51
68450;SHT30;67758;39.572;2.652;2023-05-03T00:12:42;16.95;64.49
68450;SHT30;67758;39.572;2.652;2023-05-03T00:15:12;17.01;64.41
68450;SHT30;67758;39.572;2.652;2023-05-03T00:17:38;17.03;64.98
68450;SHT30;67758;39.572;2.652;2023-05-03T00:20:05;17.08;64.91
68450;SHT30;67758;39.572;2.652;2023-05-03T00:22:31;17.08;64.56
68450;SHT30;67758;39.572;2.652;2023-05-03T00:24:58;17.03;64.92
68450;SHT30;67758;39.572;2.652;2023-05-03T00:27:27;16.98;64.98
68450;SHT30;67758;39.572;2.652;2023-05-03T00:29:53;16.93;65.47
68450;SHT30;67758;39.572;2.652;2023-05-03T00:32:20;16.88;65.70
68450;SHT30;67758;39.572;2.652;2023-05-03T00:35:13;16.86;66.34
68450;SHT30;67758;39.572;2.652;2023-05-03T00:37:39;16.86;66.47
68450;SHT30;67758;39.572;2.652;2023-05-03T00:40:06;16.81;66.29
68450;SHT30;67758;39.572;2.652;2023-05-03T00:42:35;16.73;66.47
68450;SHT30;67758;39.572;2.652;2023-05-03T00:45:06;16.62;66.44
68450;SHT30;67758;39.572;2.652;2023-05-03T00:47:32;16.51;66.56
68450;SHT30;67758;39.572;2.652;2023-05-03T00:49:59;16.52;66.67
68450;SHT30;67758;39.572;2.652;2023-05-03T00:52:25;16.41;65.85
68450;SHT30;67758;39.572;2.652;2023-05-03T00:54:52;16.34;66.00
68450;SHT30;67758;39.572;2.652;2023-05-03T00:57:18;16.38;65.61
68450;SHT30;67758;39.572;2.652;2023-05-03T00:59:49;16.42;66.25
68450;SHT30;67758;39.572;2.652;2023-05-03T01:02:17;16.42;66.28
68450;SHT30;67758;39.572;2.652;2023-05-03T01:04:43;16.45;66.77
68450;SHT30;67758;39.572;2.652;2023-05-03T01:18:42;16.25;68.36
68450;SHT30;67758;39.572;2.652;2023-05-03T01:21:17;16.40;69.44
68450;SHT30;67758;39.572;2.652;2023-05-03T01:23:58;16.38;70.17
68450;SHT30;67758;39.572;2.652;2023-05-03T01:26:28;16.47;69.96
68450;SHT30;67758;39.572;2.652;2023-05-03T01:29:00;16.55;70.29
68450;SHT30;67758;39.572;2.652;2023-05-03T01:31:38;16.52;69.65
68450;SHT30;67758;39.572;2.652;2023-05-03T01:34:13;16.55;70.87
68450;SHT30;67758;39.572;2.652;2023-05-03T01:40:02;16.79;71.84
68450;SHT30;67758;39.572;2.652;2023-05-03T01:42:41;16.88;71.50
68450;SHT30;67758;39.572;2.652;2023-05-03T01:45:07;16.85;70.97
68450;SHT30;67758;39.572;2.652;2023-05-03T01:47:39;16.68;69.66
68450;SHT30;67758;39.572;2.652;2023-05-03T01:50:08;16.54;70.14
68450;SHT30;67758;39.572;2.652;2023-05-03T01:52:36;16.38;70.06
68450;SHT30;67758;39.572;2.652;2023-05-03T01:55:03;16.22;70.42
68450;SHT30;67758;39.572;2.652;2023-05-03T01:57:29;16.16;70.70
68450;SHT30;67758;39.572;2.652;2023-05-03T01:59:55;16.09;70.98
68450;SHT30;67758;39.572;2.652;2023-05-03T02:02:23;16.06;70.84
68450;SHT30;67758;39.572;2.652;2023-05-03T02:04:52;16.00;70.93
68450;SHT30;67758;39.572;2.652;2023-05-03T02:07:19;15.97;71.13
68450;SHT30;67758;39.572;2.652;2023-05-03T02:09:45;15.90;71.16
68450;SHT30;67758;39.572;2.652;2023-05-03T02:12:13;15.91;70.98
68450;SHT30;67758;39.572;2.652;2023-05-03T02:14:40;15.90;71.08
68450;SHT30;67758;39.572;2.652;2023-05-03T02:17:07;15.89;70.91
68450;SHT30;67758;39.572;2.652;2023-05-03T02:19:35;15.82;70.86
68450;SHT30;67758;39.572;2.652;2023-05-03T02:22:02;15.73;71.12
68450;SHT30;67758;39.572;2.652;2023-05-03T02:24:27;15.71;71.31
68450;SHT30;67758;39.572;2.652;2023-05-03T02:26:54;15.90;71.20
68450;SHT30;67758;39.572;2.652;2023-05-03T02:29:22;15.89;70.39
68450;SHT30;67758;39.572;2.652;2023-05-03T02:31:48;15.86;70.47
68450;SHT30;67758;39.572;2.652;2023-05-03T02:34:14;15.76;70.32
68450;SHT30;67758;39.572;2.652;2023-05-03T02:36:42;15.65;70.16
68450;SHT30;67758;39.572;2.652;2023-05-03T02:39:08;15.56;70.45
68450;SHT30;67758;39.572;2.652;2023-05-03T02:41:35;15.49;70.86
68450;SHT30;67758;39.572;2.652;2023-05-03T02:44:00;15.50;70.97
68450;SHT30;67758;39.572;2.652;2023-05-03T02:46:26;15.45;70.86
68450;SHT30;67758;39.572;2.652;2023-05-03T02:48:52;15.42;71.05
68450;SHT30;67758;39.572;2.652;2023-05-03T02:51:17;15.36;71.01
68450;SHT30;67758;39.572;2.652;2023-05-03T02:53:43;15.38;71.15
68450;SHT30;67758;39.572;2.652;2023-05-03T02:56:09;15.38;70.87
68450;SHT30;67758;39.572;2.652;2023-05-03T02:58:34;15.40;70.95
68450;SHT30;67758;39.572;2.652;2023-05-03T03:01:00;15.43;70.79
68450;SHT30;67758;39.572;2.652;2023-05-03T03:03:26;15.52;70.39
68450;SHT30;67758;39.572;2.652;2023-05-03T03:05:51;15.59;70.58
68450;SHT30;67758;39.572;2.652;2023-05-03T03:08:19;15.52;70.11
68450;SHT30;67758;39.572;2.652;2023-05-03T03:10:45;15.60;69.98
68450;SHT30;67758;39.572;2.652;2023-05-03T03:13:11;15.50;69.96
68450;SHT30;67758;39.572;2.652;2023-05-03T03:15:37;15.48;69.95
68450;SHT30;67758;39.572;2.652;2023-05-03T03:18:03;15.38;70.03
68450;SHT30;67758;39.572;2.652;2023-05-03T03:20:31;15.39;70.18
68450;SHT30;67758;39.572;2.652;2023-05-03T03:22:57;15.31;70.17
68450;SHT30;67758;39.572;2.652;2023-05-03T03:25:25;15.28;69.82
68450;SHT30;67758;39.572;2.652;2023-05-03T03:27:51;15.36;69.39
68450;SHT30;67758;39.572;2.652;2023-05-03T03:30:19;15.32;68.96
68450;SHT30;67758;39.572;2.652;2023-05-03T03:32:44;15.40;69.30
68450;SHT30;67758;39.572;2.652;2023-05-03T03:35:10;15.34;68.73
68450;SHT30;67758;39.572;2.652;2023-05-03T03:37:37;15.34;68.71
68450;SHT30;67758;39.572;2.652;2023-05-03T03:40:05;15.26;68.73
68450;SHT30;67758;39.572;2.652;2023-05-03T03:42:32;15.29;68.55
68450;SHT30;67758;39.572;2.652;2023-05-03T03:44:58;15.24;68.55
68450;SHT30;67758;39.572;2.652;2023-05-03T03:47:23;15.29;68.87
68450;SHT30;67758;39.572;2.652;2023-05-03T03:49:49;15.31;68.66
68450;SHT30;67758;39.572;2.652;2023-05-03T03:52:15;15.22;67.66
68450;SHT30;67758;39.572;2.652;2023-05-03T03:54:41;15.17;67.89
68450;SHT30;67758;39.572;2.652;2023-05-03T03:57:06;15.18;68.19
68450;SHT30;67758;39.572;2.652;2023-05-03T03:59:36;15.09;68.16
68450;SHT30;67758;39.572;2.652;2023-05-03T04:02:04;15.11;68.24
68450;SHT30;67758;39.572;2.652;2023-05-03T04:04:30;15.09;68.16
68450;SHT30;67758;39.572;2.652;2023-05-03T04:06:56;14.99;67.94
68450;SHT30;67758;39.572;2.652;2023-05-03T04:09:21;15.04;68.21
68450;SHT30;67758;39.572;2.652;2023-05-03T04:11:48;15.07;68.00
68450;SHT30;67758;39.572;2.652;2023-05-03T04:14:13;14.99;68.17
68450;SHT30;67758;39.572;2.652;2023-05-03T04:16:39;15.14;68.75
68450;SHT30;67758;39.572;2.652;2023-05-03T04:19:05;15.05;68.28
68450;SHT30;67758;39.572;2.652;2023-05-03T04:21:31;14.94;68.25
68450;SHT30;67758;39.572;2.652;2023-05-03T04:23:57;14.88;68.41
68450;SHT30;67758;39.572;2.652;2023-05-03T04:26:24;14.81;68.58
68450;SHT30;67758;39.572;2.652;2023-05-03T04:28:50;14.81;68.73
68450;SHT30;67758;39.572;2.652;2023-05-03T04:31:17;14.77;68.85
68450;SHT30;67758;39.572;2.652;2023-05-03T04:33:45;14.78;69.01
68450;SHT30;67758;39.572;2.652;2023-05-03T04:36:11;14.74;69.31
68450;SHT30;67758;39.572;2.652;2023-05-03T04:38:41;14.89;69.69
68450;SHT30;67758;39.572;2.652;2023-05-03T04:41:08;14.89;68.64
68450;SHT30;67758;39.572;2.652;2023-05-03T04:43:34;14.88;68.67
68450;SHT30;67758;39.572;2.652;2023-05-03T04:46:22;14.87;68.85
68450;SHT30;67758;39.572;2.652;2023-05-03T04:48:48;14.87;69.73
68450;SHT30;67758;39.572;2.652;2023-05-03T04:51:18;14.76;69.58
68450;SHT30;67758;39.572;2.652;2023-05-03T04:54:57;14.66;69.91
68450;SHT30;67758;39.572;2.652;2023-05-03T04:57:25;14.64;70.26
68450;SHT30;67758;39.572;2.652;2023-05-03T05:00:00;14.64;70.12
68450;SHT30;67758;39.572;2.652;2023-05-03T05:02:26;14.67;70.36
68450;SHT30;67758;39.572;2.652;2023-05-03T05:04:52;14.71;69.94
68450;SHT30;67758;39.572;2.652;2023-05-03T05:07:27;14.78;69.71
68450;SHT30;67758;39.572;2.652;2023-05-03T05:09:56;14.78;69.73
68450;SHT30;67758;39.572;2.652;2023-05-03T05:12:23;14.81;69.45
68450;SHT30;67758;39.572;2.652;2023-05-03T05:14:49;14.88;69.48
68450;SHT30;67758;39.572;2.652;2023-05-03T05:17:16;14.85;69.56
68450;SHT30;67758;39.572;2.652;2023-05-03T05:19:45;14.83;69.81
68450;SHT30;67758;39.572;2.652;2023-05-03T05:22:18;14.92;70.93
68450;SHT30;67758;39.572;2.652;2023-05-03T05:24:54;14.95;70.72
68450;SHT30;67758;39.572;2.652;2023-05-03T05:27:43;14.88;70.56
68450;SHT30;67758;39.572;2.652;2023-05-03T05:30:28;14.91;70.74
68450;SHT30;67758;39.572;2.652;2023-05-03T05:34:17;14.89;70.75
68450;SHT30;67758;39.572;2.652;2023-05-03T05:36:30;14.94;70.64
68450;SHT30;67758;39.572;2.652;2023-05-03T05:39:20;15.02;70.53
68450;SHT30;67758;39.572;2.652;2023-05-03T05:42:10;15.18;69.78
68450;SHT30;67758;39.572;2.652;2023-05-03T05:44:53;15.31;69.35
68450;SHT30;67758;39.572;2.652;2023-05-03T05:51:15;15.53;68.37
68450;SHT30;67758;39.572;2.652;2023-05-03T05:53:45;15.53;69.15
68450;SHT30;67758;39.572;2.652;2023-05-03T05:56:13;15.50;69.42
68450;SHT30;67758;39.572;2.652;2023-05-03T05:58:39;15.53;68.89
68450;SHT30;67758;39.572;2.652;2023-05-03T06:01:13;15.58;68.62
68450;SHT30;67758;39.572;2.652;2023-05-03T06:03:54;15.56;67.48
68450;SHT30;67758;39.572;2.652;2023-05-03T06:06:21;15.62;67.74
68450;SHT30;67758;39.572;2.652;2023-05-03T06:08:51;15.74;67.91
68450;SHT30;67758;39.572;2.652;2023-05-03T06:11:44;15.80;66.66
68450;SHT30;67758;39.572;2.652;2023-05-03T06:14:10;15.93;66.96
68450;SHT30;67758;39.572;2.652;2023-05-03T06:16:36;16.00;65.36
68450;SHT30;67758;39.572;2.652;2023-05-03T06:19:08;16.01;65.21
68450;SHT30;67758;39.572;2.652;2023-05-03T06:21:42;16.11;65.56
68450;SHT30;67758;39.572;2.652;2023-05-03T06:24:15;16.11;64.94
68450;SHT30;67758;39.572;2.652;2023-05-03T06:26:46;16.30;64.45
68450;SHT30;67758;39.572;2.652;2023-05-03T06:29:12;16.37;64.49
68450;SHT30;67758;39.572;2.652;2023-05-03T06:31:54;16.45;64.41
68450;SHT30;67758;39.572;2.652;2023-05-03T06:44:12;16.96;64.55
68450;SHT30;67758;39.572;2.652;2023-05-03T06:46:48;17.03;64.64
68450;SHT30;67758;39.572;2.652;2023-05-03T06:52:45;17.27;64.51
68450;SHT30;67758;39.572;2.652;2023-05-03T06:55:23;17.36;64.27
68450;SHT30;67758;39.572;2.652;2023-05-03T06:58:08;17.37;64.49
68450;SHT30;67758;39.572;2.652;2023-05-03T07:00:47;17.47;64.81
68450;SHT30;67758;39.572;2.652;2023-05-03T07:03:23;17.59;64.86
68450;SHT30;67758;39.572;2.652;2023-05-03T07:06:13;17.66;64.82
68450;SHT30;67758;39.572;2.652;2023-05-03T07:09:03;17.71;64.09
68450;SHT30;67758;39.572;2.652;2023-05-03T07:15:38;17.95;62.81
68450;SHT30;67758;39.572;2.652;2023-05-03T07:22:27;18.02;63.79
68450;SHT30;67758;39.572;2.652;2023-05-03T07:24:53;18.04;64.53
68450;SHT30;67758;39.572;2.652;2023-05-03T07:27:25;18.21;64.10
68450;SHT30;67758;39.572;2.652;2023-05-03T07:29:53;18.38;62.50
68450;SHT30;67758;39.572;2.652;2023-05-03T07:36:45;18.56;59.68
68450;SHT30;67758;39.572;2.652;2023-05-03T07:43:46;18.73;60.08
68450;SHT30;67758;39.572;2.652;2023-05-03T07:46:42;18.82;59.91
68450;SHT30;67758;39.572;2.652;2023-05-03T07:51:50;19.03;58.75
68450;SHT30;67758;39.572;2.652;2023-05-03T07:54:17;19.08;58.54
68450;SHT30;67758;39.572;2.652;2023-05-03T07:56:43;19.16;58.28
68450;SHT30;67758;39.572;2.652;2023-05-03T07:59:18;19.27;58.27
68450;SHT30;67758;39.572;2.652;2023-05-03T08:01:45;19.37;58.50
68450;SHT30;67758;39.572;2.652;2023-05-03T08:04:14;19.37;57.91
68450;SHT30;67758;39.572;2.652;2023-05-03T08:06:40;19.35;58.04
68450;SHT30;67758;39.572;2.652;2023-05-03T08:09:08;19.38;57.24
68450;SHT30;67758;39.572;2.652;2023-05-03T08:11:37;19.44;57.60
68450;SHT30;67758;39.572;2.652;2023-05-03T08:14:10;19.54;57.45
68450;SHT30;67758;39.572;2.652;2023-05-03T08:16:59;19.55;55.90
68450;SHT30;67758;39.572;2.652;2023-05-03T08:19:25;19.59;55.20
68450;SHT30;67758;39.572;2.652;2023-05-03T08:21:51;19.65;56.28
68450;SHT30;67758;39.572;2.652;2023-05-03T08:24:34;19.62;56.53
68450;SHT30;67758;39.572;2.652;2023-05-03T08:27:11;19.64;56.86
68450;SHT30;67758;39.572;2.652;2023-05-03T08:29:46;19.67;56.72
68450;SHT30;67758;39.572;2.652;2023-05-03T08:32:29;19.64;57.32
68450;SHT30;67758;39.572;2.652;2023-05-03T08:34:57;19.65;58.20
68450;SHT30;67758;39.572;2.652;2023-05-03T08:37:51;19.67;58.67
68450;SHT30;67758;39.572;2.652;2023-05-03T08:40:26;19.78;58.85
68450;SHT30;67758;39.572;2.652;2023-05-03T08:43:10;19.82;60.25
68450;SHT30;67758;39.572;2.652;2023-05-03T08:46:19;19.83;58.21
68450;SHT30;67758;39.572;2.652;2023-05-03T08:48:55;19.88;58.48
68450;SHT30;67758;39.572;2.652;2023-05-03T08:51:22;19.95;59.19
68450;SHT30;67758;39.572;2.652;2023-05-03T08:53:49;20.10;56.67
68450;SHT30;67758;39.572;2.652;2023-05-03T08:56:23;20.20;57.17
68450;SHT30;67758;39.572;2.652;2023-05-03T08:58:51;20.29;57.33
68450;SHT30;67758;39.572;2.652;2023-05-03T09:01:24;20.34;55.82
68450;SHT30;67758;39.572;2.652;2023-05-03T09:03:56;20.33;55.98
68450;SHT30;67758;39.572;2.652;2023-05-03T09:06:47;20.49;57.00
68450;SHT30;67758;39.572;2.652;2023-05-03T09:09:30;20.51;58.33
68450;SHT30;67758;39.572;2.652;2023-05-03T09:11:56;20.54;59.65
68450;SHT30;67758;39.572;2.652;2023-05-03T09:14:25;20.50;61.95
68450;SHT30;67758;39.572;2.652;2023-05-03T09:16:53;20.51;61.65
68450;SHT30;67758;39.572;2.652;2023-05-03T09:19:22;20.60;59.34
68450;SHT30;67758;39.572;2.652;2023-05-03T09:21:51;20.76;57.62
68450;SHT30;67758;39.572;2.652;2023-05-03T09:24:23;21.08;57.08
68450;SHT30;67758;39.572;2.652;2023-05-03T09:26:57;21.27;56.93
68450;SHT30;67758;39.572;2.652;2023-05-03T09:29:33;21.52;55.47
68450;SHT30;67758;39.572;2.652;2023-05-03T09:32:02;21.71;51.82
68450;SHT30;67758;39.572;2.652;2023-05-03T09:34:33;21.81;53.01
68450;SHT30;67758;39.572;2.652;2023-05-03T09:37:03;21.93;56.99
68450;SHT30;67758;39.572;2.652;2023-05-03T09:39:33;21.86;58.64
68450;SHT30;67758;39.572;2.652;2023-05-03T09:42:17;21.96;59.37
68450;SHT30;67758;39.572;2.652;2023-05-03T09:47:10;21.96;55.18
68450;SHT30;67758;39.572;2.652;2023-05-03T09:49:36;22.13;54.16
68450;SHT30;67758;39.572;2.652;2023-05-03T09:52:05;22.24;52.44
68450;SHT30;67758;39.572;2.652;2023-05-03T09:54:33;22.37;54.52
68450;SHT30;67758;39.572;2.652;2023-05-03T09:57:06;22.43;57.39
68450;SHT30;67758;39.572;2.652;2023-05-03T09:59:36;22.50;57.66
68450;SHT30;67758;39.572;2.652;2023-05-03T10:02:06;22.55;59.11
68450;SHT30;67758;39.572;2.652;2023-05-03T10:04:50;22.64;57.86
68450;SHT30;67758;39.572;2.652;2023-05-03T10:07:19;22.81;57.71
68450;SHT30;67758;39.572;2.652;2023-05-03T10:09:47;22.99;54.87
68450;SHT30;67758;39.572;2.652;2023-05-03T10:12:13;23.04;54.81
68450;SHT30;67758;39.572;2.652;2023-05-03T10:14:43;23.19;52.87
68450;SHT30;67758;39.572;2.652;2023-05-03T10:17:32;23.32;50.30
68450;SHT30;67758;39.572;2.652;2023-05-03T10:20:23;23.25;47.76
68450;SHT30;67758;39.572;2.652;2023-05-03T10:28:36;23.71;45.98
68450;SHT30;67758;39.572;2.652;2023-05-03T10:31:44;23.90;45.94
68450;SHT30;67758;39.572;2.652;2023-05-03T10:34:24;24.14;48.62
68450;SHT30;67758;39.572;2.652;2023-05-03T10:36:54;24.54;48.54
68450;SHT30;67758;39.572;2.652;2023-05-03T10:39:20;24.83;49.31
68450;SHT30;67758;39.572;2.652;2023-05-03T10:41:58;25.81;46.08
68450;SHT30;67758;39.572;2.652;2023-05-03T10:44:27;26.57;40.98
68450;SHT30;67758;39.572;2.652;2023-05-03T10:47:21;26.89;40.00
68450;SHT30;67758;39.572;2.652;2023-05-03T10:52:49;27.58;37.10
68450;SHT30;67758;39.572;2.652;2023-05-03T10:55:19;27.78;35.07
68450;SHT30;67758;39.572;2.652;2023-05-03T10:57:48;28.46;34.25
68450;SHT30;67758;39.572;2.652;2023-05-03T11:00:42;29.21;32.00
68450;SHT30;67758;39.572;2.652;2023-05-03T11:07:34;29.35;32.19
68450;SHT30;67758;39.572;2.652;2023-05-03T11:10:23;28.89;33.69
68450;SHT30;67758;39.572;2.652;2023-05-03T11:12:52;28.52;34.50
68450;SHT30;67758;39.572;2.652;2023-05-03T11:15:19;28.35;33.94
68450;SHT30;67758;39.572;2.652;2023-05-03T11:17:45;29.00;34.75
68450;SHT30;67758;39.572;2.652;2023-05-03T11:20:14;28.87;35.17
68450;SHT30;67758;39.572;2.652;2023-05-03T11:22:40;28.81;36.35
68450;SHT30;67758;39.572;2.652;2023-05-03T11:25:06;28.43;35.39
68450;SHT30;67758;39.572;2.652;2023-05-03T11:27:32;28.02;33.71
68450;SHT30;67758;39.572;2.652;2023-05-03T11:29:58;28.15;33.72
68450;SHT30;67758;39.572;2.652;2023-05-03T11:32:27;28.45;34.38
68450;SHT30;67758;39.572;2.652;2023-05-03T11:34:55;28.76;33.92
68450;SHT30;67758;39.572;2.652;2023-05-03T11:37:23;29.18;33.62
68450;SHT30;67758;39.572;2.652;2023-05-03T11:39:49;28.71;32.49
68450;SHT30;67758;39.572;2.652;2023-05-03T11:42:14;28.83;33.04
68450;SHT30;67758;39.572;2.652;2023-05-03T11:44:40;28.50;33.34
68450;SHT30;67758;39.572;2.652;2023-05-03T11:47:06;28.60;33.52
68450;SHT30;67758;39.572;2.652;2023-05-03T11:49:31;28.97;33.11
68450;SHT30;67758;39.572;2.652;2023-05-03T11:52:02;28.60;34.01
68450;SHT30;67758;39.572;2.652;2023-05-03T11:54:29;28.64;33.25
68450;SHT30;67758;39.572;2.652;2023-05-03T11:57:11;28.43;33.31
68450;SHT30;67758;39.572;2.652;2023-05-03T11:59:38;28.28;34.18
68450;SHT30;67758;39.572;2.652;2023-05-03T12:02:06;28.12;34.46
68450;SHT30;67758;39.572;2.652;2023-05-03T12:04:32;28.94;32.28
68450;SHT30;67758;39.572;2.652;2023-05-03T12:07:06;29.20;31.75
68450;SHT30;67758;39.572;2.652;2023-05-03T12:09:32;29.68;31.41
68450;SHT30;67758;39.572;2.652;2023-05-03T12:11:59;29.12;32.01
68450;SHT30;67758;39.572;2.652;2023-05-03T12:14:27;29.45;32.05
68450;SHT30;67758;39.572;2.652;2023-05-03T12:16:57;29.51;32.33
68450;SHT30;67758;39.572;2.652;2023-05-03T12:19:27;29.58;31.62
68450;SHT30;67758;39.572;2.652;2023-05-03T12:22:03;29.61;31.64
68450;SHT30;67758;39.572;2.652;2023-05-03T12:24:55;29.30;32.11
68450;SHT30;67758;39.572;2.652;2023-05-03T12:27:29;29.52;31.88
68450;SHT30;67758;39.572;2.652;2023-05-03T12:29:55;29.03;32.54
68450;SHT30;67758;39.572;2.652;2023-05-03T12:32:21;28.96;31.73
68450;SHT30;67758;39.572;2.652;2023-05-03T12:34:46;28.76;32.86
68450;SHT30;67758;39.572;2.652;2023-05-03T12:37:12;29.28;32.69
68450;SHT30;67758;39.572;2.652;2023-05-03T12:39:39;29.17;31.98
68450;SHT30;67758;39.572;2.652;2023-05-03T12:42:08;29.01;32.81
68450;SHT30;67758;39.572;2.652;2023-05-03T12:44:33;28.90;31.98
68450;SHT30;67758;39.572;2.652;2023-05-03T12:46:59;28.56;32.30
68450;SHT30;67758;39.572;2.652;2023-05-03T12:49:25;28.42;32.10
68450;SHT30;67758;39.572;2.652;2023-05-03T12:51:50;28.40;32.15
68450;SHT30;67758;39.572;2.652;2023-05-03T12:54:16;28.20;32.17
68450;SHT30;67758;39.572;2.652;2023-05-03T12:56:42;28.57;32.09
68450;SHT30;67758;39.572;2.652;2023-05-03T12:59:07;28.71;32.02
68450;SHT30;67758;39.572;2.652;2023-05-03T13:01:33;28.40;32.29
68450;SHT30;67758;39.572;2.652;2023-05-03T13:03:59;28.22;32.48
68450;SHT30;67758;39.572;2.652;2023-05-03T13:06:25;28.32;32.74
68450;SHT30;67758;39.572;2.652;2023-05-03T13:08:56;28.36;32.62
68450;SHT30;67758;39.572;2.652;2023-05-03T13:11:22;28.32;32.75
68450;SHT30;67758;39.572;2.652;2023-05-03T13:13:51;28.35;32.41
68450;SHT30;67758;39.572;2.652;2023-05-03T13:16:17;28.71;32.24
68450;SHT30;67758;39.572;2.652;2023-05-03T13:18:44;29.03;32.40
68450;SHT30;67758;39.572;2.652;2023-05-03T13:21:09;28.83;32.54
68450;SHT30;67758;39.572;2.652;2023-05-03T13:23:37;28.38;32.80
68450;SHT30;67758;39.572;2.652;2023-05-03T13:26:03;28.40;33.42
68450;SHT30;67758;39.572;2.652;2023-05-03T13:28:28;28.67;33.54
68450;SHT30;67758;39.572;2.652;2023-05-03T13:30:54;28.77;33.38
68450;SHT30;67758;39.572;2.652;2023-05-03T13:33:20;28.63;33.33
68450;SHT30;67758;39.572;2.652;2023-05-03T13:35:46;29.24;33.25
68450;SHT30;67758;39.572;2.652;2023-05-03T13:38:12;28.89;34.18
68450;SHT30;67758;39.572;2.652;2023-05-03T13:40:38;28.22;36.03
68450;SHT30;67758;39.572;2.652;2023-05-03T13:43:06;27.36;37.59
68450;SHT30;67758;39.572;2.652;2023-05-03T13:45:32;27.84;37.64
68450;SHT30;67758;39.572;2.652;2023-05-03T13:48:01;28.04;37.05
68450;SHT30;67758;39.572;2.652;2023-05-03T13:50:30;28.35;37.88
68450;SHT30;67758;39.572;2.652;2023-05-03T13:52:55;28.05;38.31
68450;SHT30;67758;39.572;2.652;2023-05-03T13:55:21;28.08;37.71
68450;SHT30;67758;39.572;2.652;2023-05-03T13:57:47;27.51;39.87
68450;SHT30;67758;39.572;2.652;2023-05-03T14:00:17;27.26;40.41
68450;SHT30;67758;39.572;2.652;2023-05-03T14:02:45;26.73;41.67
68450;SHT30;67758;39.572;2.652;2023-05-03T14:05:13;27.02;41.78
68450;SHT30;67758;39.572;2.652;2023-05-03T14:07:39;27.14;41.41
68450;SHT30;67758;39.572;2.652;2023-05-03T14:10:05;26.86;40.65
68450;SHT30;67758;39.572;2.652;2023-05-03T14:12:32;26.86;41.58
68450;SHT30;67758;39.572;2.652;2023-05-03T14:15:04;27.27;40.04
68450;SHT30;67758;39.572;2.652;2023-05-03T14:17:31;26.41;40.59
68450;SHT30;67758;39.572;2.652;2023-05-03T14:19:59;25.90;42.75
68450;SHT30;67758;39.572;2.652;2023-05-03T14:22:25;25.94;43.05
68450;SHT30;67758;39.572;2.652;2023-05-03T14:24:55;26.22;43.73
68450;SHT30;67758;39.572;2.652;2023-05-03T14:27:21;27.16;42.16
68450;SHT30;67758;39.572;2.652;2023-05-03T14:29:47;27.68;41.14
68450;SHT30;67758;39.572;2.652;2023-05-03T14:32:12;28.10;41.40
68450;SHT30;67758;39.572;2.652;2023-05-03T14:34:38;28.77;38.12
68450;SHT30;67758;39.572;2.652;2023-05-03T14:37:04;27.84;39.52
68450;SHT30;67758;39.572;2.652;2023-05-03T14:39:30;28.49;38.62
68450;SHT30;67758;39.572;2.652;2023-05-03T14:41:55;28.61;39.05
68450;SHT30;67758;39.572;2.652;2023-05-03T14:44:21;29.25;38.94
68450;SHT30;67758;39.572;2.652;2023-05-03T14:46:50;28.64;40.61
68450;SHT30;67758;39.572;2.652;2023-05-03T14:49:17;28.28;41.07
68450;SHT30;67758;39.572;2.652;2023-05-03T14:51:44;28.20;41.38
68450;SHT30;67758;39.572;2.652;2023-05-03T14:54:12;28.49;41.16
68450;SHT30;67758;39.572;2.652;2023-05-03T14:56:38;28.31;41.90
68450;SHT30;67758;39.572;2.652;2023-05-03T14:59:04;27.77;43.42
68450;SHT30;67758;39.572;2.652;2023-05-03T15:01:32;27.43;44.50
68450;SHT30;67758;39.572;2.652;2023-05-03T15:03:58;26.97;45.89
68450;SHT30;67758;39.572;2.652;2023-05-03T15:06:28;27.51;45.35
68450;SHT30;67758;39.572;2.652;2023-05-03T15:08:55;26.68;48.15
68450;SHT30;67758;39.572;2.652;2023-05-03T15:11:25;26.24;48.37
68450;SHT30;67758;39.572;2.652;2023-05-03T15:13:52;26.18;49.29
68450;SHT30;67758;39.572;2.652;2023-05-03T15:16:17;26.76;48.23
68450;SHT30;67758;39.572;2.652;2023-05-03T15:18:43;27.33;47.98
68450;SHT30;67758;39.572;2.652;2023-05-03T15:21:21;27.71;47.54
68450;SHT30;67758;39.572;2.652;2023-05-03T15:23:48;27.57;48.46
68450;SHT30;67758;39.572;2.652;2023-05-03T15:26:15;27.72;48.57
68450;SHT30;67758;39.572;2.652;2023-05-03T15:28:40;27.96;48.12
68450;SHT30;67758;39.572;2.652;2023-05-03T15:31:06;27.67;49.20
68450;SHT30;67758;39.572;2.652;2023-05-03T15:33:39;27.64;48.89
68450;SHT30;67758;39.572;2.652;2023-05-03T15:36:07;26.96;50.68
68450;SHT30;67758;39.572;2.652;2023-05-03T15:38:32;26.41;52.37
68450;SHT30;67758;39.572;2.652;2023-05-03T15:40:58;26.34;53.76
68450;SHT30;67758;39.572;2.652;2023-05-03T15:43:24;26.04;54.38
68450;SHT30;67758;39.572;2.652;2023-05-03T15:45:49;26.06;54.39
68450;SHT30;67758;39.572;2.652;2023-05-03T15:48:15;26.45;54.97
68450;SHT30;67758;39.572;2.652;2023-05-03T15:50:41;26.69;53.22
68450;SHT30;67758;39.572;2.652;2023-05-03T15:53:07;26.90;53.00
68450;SHT30;67758;39.572;2.652;2023-05-03T15:55:40;27.04;51.40
68450;SHT30;67758;39.572;2.652;2023-05-03T15:58:09;26.80;50.82
68450;SHT30;67758;39.572;2.652;2023-05-03T16:00:35;26.60;50.66
68450;SHT30;67758;39.572;2.652;2023-05-03T16:03:03;26.68;50.84
68450;SHT30;67758;39.572;2.652;2023-05-03T16:05:31;26.49;51.21
68450;SHT30;67758;39.572;2.652;2023-05-03T16:07:59;26.36;51.18
68450;SHT30;67758;39.572;2.652;2023-05-03T16:10:27;26.44;51.06
68450;SHT30;67758;39.572;2.652;2023-05-03T16:13:04;26.72;49.54
68450;SHT30;67758;39.572;2.652;2023-05-03T16:15:30;26.41;50.42
68450;SHT30;67758;39.572;2.652;2023-05-03T16:17:56;26.11;50.95
68450;SHT30;67758;39.572;2.652;2023-05-03T16:20:22;26.02;51.76
68450;SHT30;67758;39.572;2.652;2023-05-03T16:22:50;25.67;52.55
68450;SHT30;67758;39.572;2.652;2023-05-03T16:25:16;25.42;53.11
68450;SHT30;67758;39.572;2.652;2023-05-03T16:27:41;25.44;52.72
68450;SHT30;67758;39.572;2.652;2023-05-03T16:30:08;25.57;52.56
68450;SHT30;67758;39.572;2.652;2023-05-03T16:32:34;25.18;54.76
68450;SHT30;67758;39.572;2.652;2023-05-03T16:35:01;25.26;55.26
68450;SHT30;67758;39.572;2.652;2023-05-03T16:37:30;25.42;55.43
68450;SHT30;67758;39.572;2.652;2023-05-03T16:39:58;25.36;56.04
68450;SHT30;67758;39.572;2.652;2023-05-03T16:42:24;25.00;57.79
68450;SHT30;67758;39.572;2.652;2023-05-03T16:44:49;24.65;59.87
68450;SHT30;67758;39.572;2.652;2023-05-03T16:47:15;24.83;60.25
68450;SHT30;67758;39.572;2.652;2023-05-03T16:49:41;24.78;60.65
68450;SHT30;67758;39.572;2.652;2023-05-03T16:52:07;24.31;61.03
68450;SHT30;67758;39.572;2.652;2023-05-03T16:54:33;23.73;61.86